PWSweather.com
Personal Weather Stations
Station Observations
PWSLORIS
The Farm At Fox Bay, Loris, SC 29569

The Farm At Fox BayLoris, SC 29569

Lat: 34.067097, Lon: -78.86907

Elevation: 108

Station Type: Davis Vantage Pro2 with 24 hr. FARS and solar

http://www.lorisweather.com

Latest ConditionsUpdated 8:00:00 PM EDT Monday, Jul 16, 2018
Currently Today's Max Today's Min Today's Average
Temperature 81.6°F27.6°C 88.3°F31.3°C 68.3°F20.2°C 78.2°F25.7°C
Dew Point 72.1°F22.3°C 75.5°F24.2°C 67.4°F19.7°C 71.1°F21.7°C
Winds 2.3 mph S3.7 kmh S 4.6 mph -7.4 kmh - - 0.6 mph 1.0 kmh
Wind Gusts 3.5 mph5.6 kmh 6.9 mph11.1 kmh - -
Humidity 73% 98% 57% 81%
Pressure 29.99 in1015.6 mb 30.06 in1017.9 mb 29.97 in1014.9 mb -
Hour Temp Dew Point Humidity Winds Wind Gusts Pressure Precip Precip Rate Daily Precip Total
08:00 PM 81.6°F27.6°C 72.1°F22.3°C 73% 2.3 mph S3.7 kmh S 3.5 mph5.6 kmh 29.99 in1015.6 mb - 0.00 in0.0 mm 0.00 in0.0 mm
07:45 PM 82.6°F28.1°C 71.8°F22.1°C 70% 2.3 mph S3.7 kmh S 3.5 mph5.6 kmh 29.98 in1015.2 mb - 0.00 in0.0 mm 0.00 in0.0 mm
07:30 PM 83.1°F28.4°C 71.9°F22.2°C 69% 2.3 mph SSW3.7 kmh SSW 4.6 mph7.4 kmh 29.98 in1015.2 mb - 0.00 in0.0 mm 0.00 in0.0 mm
07:15 PM 83.7°F28.7°C 72.9°F22.7°C 70% 2.3 mph SSE3.7 kmh SSE 3.5 mph5.6 kmh 29.98 in1015.2 mb - 0.00 in0.0 mm 0.00 in0.0 mm
07:00 PM 84.8°F29.3°C 73.5°F23.1°C 69% 3.5 mph S5.6 kmh S 6.9 mph11.1 kmh 29.98 in1015.2 mb - 0.00 in0.0 mm 0.00 in0.0 mm
06:45 PM 85.8°F29.9°C 73.6°F23.1°C 67% 4.6 mph S7.4 kmh S 6.9 mph11.1 kmh 29.97 in1014.9 mb - 0.00 in0.0 mm 0.00 in0.0 mm
06:30 PM 85.2°F29.6°C 75.5°F24.2°C 73% 1.2 mph S1.9 kmh S 3.5 mph5.6 kmh 29.98 in1015.2 mb - 0.00 in0.0 mm 0.00 in0.0 mm
06:15 PM 86.4°F30.2°C 73.3°F22.9°C 65% 1.2 mph SE1.9 kmh SE 3.5 mph5.6 kmh 29.98 in1015.2 mb - 0.00 in0.0 mm 0.00 in0.0 mm
06:00 PM 85.6°F29.8°C 75.5°F24.2°C 72% Calm Calm -- 29.98 in1015.2 mb - 0.00 in0.0 mm 0.00 in0.0 mm
05:45 PM 87.4°F30.8°C 72.8°F22.7°C 62% 2.3 mph S3.7 kmh S 4.6 mph7.4 kmh 29.98 in1015.2 mb - 0.00 in0.0 mm 0.00 in0.0 mm
05:30 PM 85.8°F29.9°C 73.1°F22.8°C 66% 1.2 mph S1.9 kmh S 3.5 mph5.6 kmh 29.98 in1015.2 mb - 0.00 in0.0 mm 0.00 in0.0 mm
05:15 PM 85.7°F29.8°C 73.1°F22.8°C 66% 1.2 mph S1.9 kmh S 2.3 mph3.7 kmh 29.98 in1015.2 mb - 0.00 in0.0 mm 0.00 in0.0 mm
05:00 PM 86.4°F30.2°C 72.8°F22.7°C 64% Calm Calm 1.2 mph1.9 kmh 29.99 in1015.6 mb - 0.00 in0.0 mm 0.00 in0.0 mm
04:45 PM 86.5°F30.3°C 73.8°F23.2°C 66% Calm Calm 3.5 mph5.6 kmh 29.99 in1015.6 mb - 0.00 in0.0 mm 0.00 in0.0 mm
04:30 PM 86.3°F30.2°C 73.2°F22.9°C 65% Calm Calm 1.2 mph1.9 kmh 29.99 in1015.6 mb - 0.00 in0.0 mm 0.00 in0.0 mm
04:15 PM 87.0°F30.6°C 72.8°F22.7°C 63% 1.2 mph S1.9 kmh S 2.3 mph3.7 kmh 30.00 in1015.9 mb - 0.00 in0.0 mm 0.00 in0.0 mm
04:00 PM 88.2°F31.2°C 73.1°F22.8°C 61% Calm Calm 2.3 mph3.7 kmh 30.00 in1015.9 mb - 0.00 in0.0 mm 0.00 in0.0 mm
03:45 PM 87.7°F30.9°C 72.1°F22.3°C 60% 1.2 mph S1.9 kmh S 3.5 mph5.6 kmh 30.00 in1015.9 mb - 0.00 in0.0 mm 0.00 in0.0 mm
03:30 PM 87.9°F31.1°C 71.8°F22.1°C 59% 2.3 mph S3.7 kmh S 2.3 mph3.7 kmh 30.01 in1016.3 mb - 0.00 in0.0 mm 0.00 in0.0 mm
03:15 PM 87.5°F30.8°C 70.4°F21.3°C 57% 4.6 mph S7.4 kmh S 6.9 mph11.1 kmh 30.01 in1016.3 mb - 0.00 in0.0 mm 0.00 in0.0 mm
03:00 PM 88.3°F31.3°C 71.6°F22.0°C 58% 2.3 mph S3.7 kmh S 3.5 mph5.6 kmh 30.01 in1016.3 mb - 0.00 in0.0 mm 0.00 in0.0 mm
02:45 PM 86.9°F30.5°C 71.4°F21.9°C 60% 2.3 mph SE3.7 kmh SE 3.5 mph5.6 kmh 30.02 in1016.6 mb - 0.00 in0.0 mm 0.00 in0.0 mm
02:30 PM 86.9°F30.5°C 69.8°F21.0°C 57% Calm Calm 2.3 mph3.7 kmh 30.03 in1016.9 mb - 0.00 in0.0 mm 0.00 in0.0 mm
02:15 PM 86.0°F30.0°C 70.5°F21.4°C 60% 2.3 mph NW3.7 kmh NW 3.5 mph5.6 kmh 30.03 in1016.9 mb - 0.00 in0.0 mm 0.00 in0.0 mm
02:00 PM 85.1°F29.5°C 71.1°F21.7°C 63% Calm Calm -- 30.04 in1017.3 mb - 0.00 in0.0 mm 0.00 in0.0 mm
01:45 PM 85.9°F29.9°C 73.3°F22.9°C 66% Calm Calm 1.2 mph1.9 kmh 30.05 in1017.6 mb - 0.00 in0.0 mm 0.00 in0.0 mm
01:30 PM 85.0°F29.4°C 71.9°F22.2°C 65% Calm Calm 1.2 mph1.9 kmh 30.05 in1017.6 mb - 0.00 in0.0 mm 0.00 in0.0 mm
01:15 PM 85.4°F29.7°C 69.9°F21.1°C 60% Calm Calm 1.2 mph1.9 kmh 30.05 in1017.6 mb - 0.00 in0.0 mm 0.00 in0.0 mm
01:00 PM 85.4°F29.7°C 73.6°F23.1°C 68% 1.2 mph S1.9 kmh S 2.3 mph3.7 kmh 30.06 in1017.9 mb - 0.00 in0.0 mm 0.00 in0.0 mm
12:45 PM 84.7°F29.3°C 70.8°F21.6°C 63% Calm Calm -- 30.06 in1017.9 mb - 0.00 in0.0 mm 0.00 in0.0 mm
12:30 PM 84.5°F29.2°C 70.5°F21.4°C 63% 2.3 mph NW3.7 kmh NW 2.3 mph3.7 kmh 30.06 in1017.9 mb - 0.00 in0.0 mm 0.00 in0.0 mm
12:15 PM 84.2°F29.0°C 73.4°F23.0°C 70% Calm Calm -- 30.06 in1017.9 mb - 0.00 in0.0 mm 0.00 in0.0 mm
12:00 PM 83.5°F28.6°C 73.9°F23.3°C 73% Calm Calm -- 30.06 in1017.9 mb - 0.00 in0.0 mm 0.00 in0.0 mm
11:45 AM 83.6°F28.7°C 72.3°F22.4°C 69% Calm Calm -- 30.06 in1017.9 mb - 0.00 in0.0 mm 0.00 in0.0 mm
11:30 AM 82.9°F28.3°C 73.4°F23.0°C 73% 1.2 mph NNW1.9 kmh NNW 2.3 mph3.7 kmh 30.06 in1017.9 mb - 0.00 in0.0 mm 0.00 in0.0 mm
11:15 AM 82.1°F27.8°C 73.0°F22.8°C 74% Calm Calm -- 30.06 in1017.9 mb - 0.00 in0.0 mm 0.00 in0.0 mm
11:00 AM 82.5°F28.1°C 72.6°F22.6°C 72% Calm Calm -- 30.06 in1017.9 mb - 0.00 in0.0 mm 0.00 in0.0 mm
10:45 AM 82.5°F28.1°C 72.6°F22.6°C 72% Calm Calm -- 30.05 in1017.6 mb - 0.00 in0.0 mm 0.00 in0.0 mm
10:30 AM 82.2°F27.9°C 73.4°F23.0°C 75% Calm Calm -- 30.05 in1017.6 mb - 0.00 in0.0 mm 0.00 in0.0 mm
10:15 AM 81.3°F27.4°C 74.9°F23.8°C 81% Calm Calm -- 30.05 in1017.6 mb - 0.00 in0.0 mm 0.00 in0.0 mm
10:00 AM 80.7°F27.1°C 74.7°F23.7°C 82% Calm Calm -- 30.05 in1017.6 mb - 0.00 in0.0 mm 0.00 in0.0 mm
09:45 AM 80.0°F26.7°C 75.4°F24.1°C 86% Calm Calm -- 30.05 in1017.6 mb - 0.00 in0.0 mm 0.00 in0.0 mm
09:30 AM 79.1°F26.2°C 73.5°F23.1°C 83% Calm Calm -- 30.05 in1017.6 mb - 0.00 in0.0 mm 0.00 in0.0 mm
09:15 AM 77.8°F25.4°C 73.3°F22.9°C 86% Calm Calm -- 30.05 in1017.6 mb - 0.00 in0.0 mm 0.00 in0.0 mm
09:00 AM 77.6°F25.3°C 72.3°F22.4°C 84% Calm Calm -- 30.05 in1017.6 mb - 0.00 in0.0 mm 0.00 in0.0 mm
08:45 AM 76.1°F24.5°C 73.0°F22.8°C 90% Calm Calm -- 30.05 in1017.6 mb - 0.00 in0.0 mm 0.00 in0.0 mm
08:30 AM 74.4°F23.6°C 72.5°F22.5°C 94% Calm Calm -- 30.05 in1017.6 mb - 0.00 in0.0 mm 0.00 in0.0 mm
08:15 AM 73.3°F22.9°C 71.2°F21.8°C 93% Calm Calm -- 30.05 in1017.6 mb - 0.00 in0.0 mm 0.00 in0.0 mm
08:00 AM 72.4°F22.4°C 70.9°F21.6°C 95% Calm Calm -- 30.05 in1017.6 mb - 0.00 in0.0 mm 0.00 in0.0 mm
07:45 AM 71.4°F21.9°C 69.9°F21.1°C 95% Calm Calm -- 30.05 in1017.6 mb - 0.00 in0.0 mm 0.00 in0.0 mm
07:30 AM 70.7°F21.5°C 69.5°F20.8°C 96% Calm Calm -- 30.04 in1017.3 mb - 0.00 in0.0 mm 0.00 in0.0 mm
07:15 AM 70.0°F21.1°C 69.1°F20.6°C 97% Calm Calm -- 30.04 in1017.3 mb - 0.00 in0.0 mm 0.00 in0.0 mm
07:00 AM 69.3°F20.7°C 68.8°F20.4°C 98% Calm Calm -- 30.04 in1017.3 mb - 0.00 in0.0 mm 0.00 in0.0 mm
06:45 AM 68.7°F20.4°C 67.8°F19.9°C 97% Calm Calm -- 30.04 in1017.3 mb - 0.00 in0.0 mm 0.00 in0.0 mm
06:30 AM 68.9°F20.5°C 68.0°F20.0°C 97% Calm Calm -- 30.03 in1016.9 mb - 0.00 in0.0 mm 0.00 in0.0 mm
06:15 AM 68.5°F20.3°C 67.6°F19.8°C 97% Calm Calm -- 30.03 in1016.9 mb - 0.00 in0.0 mm 0.00 in0.0 mm
06:00 AM 68.6°F20.3°C 67.7°F19.8°C 97% Calm Calm -- 30.03 in1016.9 mb - 0.00 in0.0 mm 0.00 in0.0 mm
05:45 AM 68.4°F20.2°C 67.5°F19.7°C 97% Calm Calm -- 30.03 in1016.9 mb - 0.00 in0.0 mm 0.00 in0.0 mm
05:30 AM 68.3°F20.2°C 67.4°F19.7°C 97% Calm Calm -- 30.03 in1016.9 mb - 0.00 in0.0 mm 0.00 in0.0 mm
05:15 AM 68.4°F20.2°C 67.5°F19.7°C 97% Calm Calm -- 30.03 in1016.9 mb - 0.00 in0.0 mm 0.00 in0.0 mm
05:00 AM 68.6°F20.3°C 67.7°F19.8°C 97% Calm Calm -- 30.02 in1016.6 mb - 0.00 in0.0 mm 0.00 in0.0 mm
04:45 AM 68.7°F20.4°C 67.8°F19.9°C 97% Calm Calm -- 30.03 in1016.9 mb - 0.00 in0.0 mm 0.00 in0.0 mm
04:30 AM 68.8°F20.4°C 67.9°F19.9°C 97% Calm Calm -- 30.03 in1016.9 mb - 0.00 in0.0 mm 0.00 in0.0 mm
04:15 AM 69.0°F20.6°C 68.1°F20.1°C 97% Calm Calm -- 30.03 in1016.9 mb - 0.00 in0.0 mm 0.00 in0.0 mm
04:00 AM 69.0°F20.6°C 68.1°F20.1°C 97% Calm Calm -- 30.03 in1016.9 mb - 0.00 in0.0 mm 0.00 in0.0 mm
03:45 AM 69.1°F20.6°C 68.2°F20.1°C 97% Calm Calm -- 30.03 in1016.9 mb - 0.00 in0.0 mm 0.00 in0.0 mm
03:30 AM 69.4°F20.8°C 68.5°F20.3°C 97% Calm Calm -- 30.03 in1016.9 mb - 0.00 in0.0 mm 0.00 in0.0 mm
03:15 AM 69.6°F20.9°C 68.7°F20.4°C 97% Calm Calm -- 30.03 in1016.9 mb - 0.00 in0.0 mm 0.00 in0.0 mm
03:00 AM 70.0°F21.1°C 69.1°F20.6°C 97% Calm Calm -- 30.03 in1016.9 mb - 0.00 in0.0 mm 0.00 in0.0 mm
02:45 AM 70.3°F21.3°C 69.4°F20.8°C 97% Calm Calm -- 30.04 in1017.3 mb - 0.00 in0.0 mm 0.00 in0.0 mm
02:30 AM 70.3°F21.3°C 69.4°F20.8°C 97% Calm Calm -- 30.04 in1017.3 mb - 0.00 in0.0 mm 0.00 in0.0 mm
02:15 AM 70.4°F21.3°C 69.5°F20.8°C 97% Calm Calm -- 30.04 in1017.3 mb - 0.00 in0.0 mm 0.00 in0.0 mm
02:00 AM 70.5°F21.4°C 69.3°F20.7°C 96% Calm Calm -- 30.04 in1017.3 mb - 0.00 in0.0 mm 0.00 in0.0 mm
01:45 AM 70.7°F21.5°C 69.5°F20.8°C 96% Calm Calm -- 30.04 in1017.3 mb - 0.00 in0.0 mm 0.00 in0.0 mm
01:30 AM 70.9°F21.6°C 69.7°F20.9°C 96% Calm Calm -- 30.04 in1017.3 mb - 0.00 in0.0 mm 0.00 in0.0 mm
01:15 AM 71.2°F21.8°C 70.0°F21.1°C 96% Calm Calm -- 30.05 in1017.6 mb - 0.00 in0.0 mm 0.00 in0.0 mm
01:00 AM 71.5°F21.9°C 70.3°F21.3°C 96% Calm Calm -- 30.04 in1017.3 mb - 0.00 in0.0 mm 0.00 in0.0 mm
12:45 AM 71.8°F22.1°C 70.3°F21.3°C 95% Calm Calm -- 30.04 in1017.3 mb - 0.00 in0.0 mm 0.00 in0.0 mm
12:30 AM 72.0°F22.2°C 70.2°F21.2°C 94% Calm Calm -- 30.05 in1017.6 mb - 0.00 in0.0 mm 0.00 in0.0 mm
12:15 AM 72.4°F22.4°C 70.3°F21.3°C 93% Calm Calm -- 30.05 in1017.6 mb - 0.00 in0.0 mm 0.00 in0.0 mm
12:00 AM 72.8°F22.7°C 70.3°F21.3°C 92% Calm Calm -- 30.05 in1017.6 mb - 0.00 in0.0 mm 0.00 in0.0 mm